createdAt,value
2022-11-24T00:01:31.282Z,2.94
2022-11-24T00:04:05.928Z,2.93
2022-11-24T00:06:35.963Z,2.95
2022-11-24T00:09:11.002Z,2.94
2022-11-24T00:11:38.129Z,2.97
2022-11-24T00:14:06.847Z,2.97
2022-11-24T00:16:37.383Z,2.98
2022-11-24T00:19:09.482Z,2.99
2022-11-24T00:21:38.741Z,2.98
2022-11-24T00:24:09.702Z,3.03
2022-11-24T00:26:40.127Z,3.03
2022-11-24T00:29:10.982Z,3.01
2022-11-24T00:31:44.684Z,3.08
2022-11-24T00:34:14.826Z,3.07
2022-11-24T00:36:42.685Z,3.07
2022-11-24T00:39:15.896Z,3.06
2022-11-24T00:41:43.582Z,3.07
2022-11-24T00:44:12.173Z,3.05
2022-11-24T00:46:39.103Z,3.05
2022-11-24T00:49:08.796Z,3.05
2022-11-24T00:51:35.515Z,3.04
2022-11-24T00:54:02.840Z,3.05
2022-11-24T00:56:30.481Z,3.08
2022-11-24T00:58:57.863Z,3.05
2022-11-24T01:01:30.957Z,3.04
2022-11-24T01:04:04.012Z,3.02
2022-11-24T01:06:32.681Z,3.02
2022-11-24T01:08:59.797Z,2.99
2022-11-24T01:11:55.085Z,2.95
2022-11-24T01:14:25.466Z,2.96
2022-11-24T01:16:52.911Z,2.95
2022-11-24T01:19:20.386Z,3.02
2022-11-24T01:21:47.877Z,3.07
2022-11-24T01:24:15.191Z,3.08
2022-11-24T01:26:44.320Z,3.12
2022-11-24T01:29:14.671Z,3.13
2022-11-24T01:31:41.505Z,3.15
2022-11-24T01:34:10.048Z,3.19
2022-11-24T01:36:36.838Z,3.20
2022-11-24T01:39:03.701Z,3.21
2022-11-24T01:41:30.469Z,3.21
2022-11-24T01:44:00.264Z,3.23
2022-11-24T01:46:35.264Z,3.22
2022-11-24T01:49:35.959Z,3.19
2022-11-24T01:52:12.680Z,3.18
2022-11-24T01:54:51.709Z,3.17
2022-11-24T01:57:36.444Z,3.17
2022-11-24T02:00:12.859Z,3.16
2022-11-24T02:02:42.779Z,3.16
2022-11-24T02:05:43.768Z,3.16
2022-11-24T02:08:31.310Z,3.16
2022-11-24T02:10:58.282Z,3.16
2022-11-24T02:13:25.257Z,3.17
2022-11-24T02:15:54.278Z,3.18
2022-11-24T02:18:21.356Z,3.18
2022-11-24T02:20:48.174Z,3.20
2022-11-24T02:23:31.199Z,3.20
2022-11-24T02:26:47.253Z,3.23
2022-11-24T02:29:15.430Z,3.23
2022-11-24T02:31:56.659Z,3.24
2022-11-24T02:34:23.641Z,3.25
2022-11-24T02:36:50.293Z,3.26
2022-11-24T02:39:20.012Z,3.24
2022-11-24T02:41:58.836Z,3.26
2022-11-24T02:44:35.624Z,3.29
2022-11-24T02:47:13.001Z,3.30
2022-11-24T02:49:40.714Z,3.31
2022-11-24T02:52:10.948Z,3.32
2022-11-24T02:54:37.754Z,3.33
2022-11-24T02:57:04.943Z,3.34
2022-11-24T02:59:32.077Z,3.38
2022-11-24T03:01:58.864Z,3.39
2022-11-24T03:04:28.704Z,3.38
2022-11-24T03:06:57.368Z,3.39
2022-11-24T03:09:24.321Z,3.40
2022-11-24T03:11:50.960Z,3.42
2022-11-24T03:14:19.387Z,3.44
2022-11-24T03:16:46.057Z,3.46
2022-11-24T03:32:28.630Z,3.54
2022-11-24T03:34:58.076Z,3.54
2022-11-24T03:37:24.735Z,3.54
2022-11-24T03:39:51.448Z,3.53
2022-11-24T03:42:19.307Z,3.53
2022-11-24T03:44:46.121Z,3.52
2022-11-24T03:47:15.472Z,3.50
2022-11-24T03:49:44.762Z,3.48
2022-11-24T03:52:14.386Z,3.47
2022-11-24T03:54:48.988Z,3.50
2022-11-24T03:57:15.673Z,3.51
2022-11-24T03:59:44.551Z,3.54
2022-11-24T04:02:14.358Z,3.55
2022-11-24T04:05:06.812Z,3.56
2022-11-24T04:07:33.676Z,3.58
2022-11-24T04:10:04.477Z,3.60
2022-11-24T04:12:46.288Z,3.62
2022-11-24T04:15:20.981Z,3.63
2022-11-24T04:17:50.575Z,3.64
2022-11-24T04:20:17.518Z,3.65
2022-11-24T04:22:44.160Z,3.66
2022-11-24T04:25:11.743Z,3.65
2022-11-24T04:27:39.389Z,3.70
2022-11-24T04:30:08.096Z,3.70
2022-11-24T04:32:35.793Z,3.71
2022-11-24T04:35:04.208Z,3.72
2022-11-24T04:37:31.021Z,3.73
2022-11-24T04:40:00.395Z,3.74
2022-11-24T04:42:27.235Z,3.77
2022-11-24T04:44:55.840Z,3.77
2022-11-24T04:47:26.337Z,3.78
2022-11-24T04:49:53.995Z,3.79
2022-11-24T04:52:24.536Z,3.83
2022-11-24T04:54:52.445Z,3.84
2022-11-24T04:57:29.605Z,3.87
2022-11-24T04:59:56.413Z,3.86
2022-11-24T05:02:24.079Z,3.88
2022-11-24T05:04:51.194Z,3.90
2022-11-24T05:07:19.769Z,3.91
2022-11-24T05:10:06.254Z,3.91
2022-11-24T05:12:33.576Z,3.91
2022-11-24T05:15:04.140Z,3.94
2022-11-24T05:17:38.701Z,3.94
2022-11-24T05:20:07.712Z,3.97
2022-11-24T05:22:35.089Z,3.99
2022-11-24T05:25:02.131Z,4.01
2022-11-24T05:27:29.647Z,4.01
2022-11-24T05:29:56.886Z,4.03
2022-11-24T05:32:24.022Z,4.04
2022-11-24T05:34:51.199Z,4.05
2022-11-24T05:37:18.087Z,4.06
2022-11-24T05:39:47.890Z,4.06
2022-11-24T05:42:32.968Z,4.08
2022-11-24T05:44:59.744Z,4.09
2022-11-24T05:47:35.194Z,4.11
2022-11-24T05:50:01.849Z,4.11
2022-11-24T05:52:28.655Z,4.10
2022-11-24T05:54:55.416Z,4.12
2022-11-24T05:57:22.068Z,4.11
2022-11-24T05:59:48.740Z,4.12
2022-11-24T06:02:15.774Z,4.12
2022-11-24T06:04:44.491Z,4.12
2022-11-24T06:07:13.009Z,4.09
2022-11-24T06:09:43.048Z,4.11
2022-11-24T06:12:12.730Z,4.10
2022-11-24T06:14:40.374Z,4.11
2022-11-24T06:17:08.132Z,4.11
2022-11-24T06:19:40.037Z,4.10
2022-11-24T06:22:08.384Z,4.09
2022-11-24T06:24:35.035Z,4.11
2022-11-24T06:27:01.792Z,4.10
2022-11-24T06:29:28.463Z,4.11
2022-11-24T06:34:36.438Z,4.13
2022-11-24T06:37:05.482Z,4.14
2022-11-24T06:53:06.488Z,4.20
2022-11-24T06:55:33.361Z,4.22
2022-11-24T06:57:59.963Z,4.24
2022-11-24T07:00:29.218Z,4.23
2022-11-24T07:24:45.933Z,4.35
2022-11-24T07:27:12.560Z,4.34
2022-11-24T07:35:04.438Z,4.44
2022-11-24T07:37:31.966Z,4.46
2022-11-24T07:39:58.907Z,4.46
2022-11-24T07:42:25.607Z,4.47
2022-11-24T07:44:52.200Z,4.48
2022-11-24T08:11:38.715Z,4.68
2022-11-24T08:27:45.385Z,4.80
2022-11-24T08:30:13.391Z,4.86
2022-11-24T08:32:40.026Z,4.90
2022-11-24T08:35:13.984Z,4.92
2022-11-24T08:37:41.020Z,4.99
2022-11-24T08:40:08.881Z,5.06
2022-11-24T08:42:35.470Z,5.09
2022-11-24T08:45:19.425Z,5.14
2022-11-24T08:47:54.235Z,5.17
2022-11-24T08:50:23.952Z,5.19
2022-11-24T08:52:53.684Z,5.24
2022-11-24T08:55:21.340Z,5.26
2022-11-24T08:57:48.023Z,5.28
2022-11-24T09:00:22.119Z,5.36
2022-11-24T09:02:59.473Z,5.43
2022-11-24T09:05:50.585Z,5.51
2022-11-24T09:08:12.903Z,5.56
2022-11-24T09:10:43.094Z,5.60
2022-11-24T09:13:09.687Z,5.60
2022-11-24T09:15:38.262Z,5.67
2022-11-24T09:18:05.386Z,5.73
2022-11-24T09:20:32.155Z,5.80
2022-11-24T09:22:58.958Z,5.97
2022-11-24T09:25:25.638Z,6.02
2022-11-24T09:27:52.349Z,5.96
2022-11-24T09:30:20.310Z,6.05
2022-11-24T09:32:47.005Z,6.00
2022-11-24T09:35:13.797Z,6.07
2022-11-24T09:37:40.508Z,6.05
2022-11-24T09:40:14.236Z,6.15
2022-11-24T09:43:24.216Z,6.19
2022-11-24T09:46:27.002Z,6.20
2022-11-24T09:48:58.468Z,6.22
2022-11-24T09:51:37.007Z,6.22
2022-11-24T09:54:19.569Z,6.24
2022-11-24T09:56:49.000Z,6.35
2022-11-24T10:24:51.828Z,6.91
2022-11-24T10:33:30.017Z,6.82
2022-11-24T10:56:24.439Z,6.66
2022-11-24T11:01:35.900Z,6.65
2022-11-24T11:04:03.603Z,6.64
2022-11-24T11:06:32.338Z,6.70
2022-11-24T11:09:08.426Z,6.74
2022-11-24T11:34:59.443Z,7.27
2022-11-24T11:37:32.841Z,7.35
2022-11-24T11:40:02.268Z,7.42
2022-11-24T11:51:46.577Z,7.57
2022-11-24T11:54:54.300Z,7.62
2022-11-24T12:00:39.631Z,7.46
2022-11-24T12:03:45.166Z,7.46
2022-11-24T12:39:20.849Z,7.42
2022-11-24T12:42:45.525Z,7.40
2022-11-24T12:45:22.233Z,7.35
2022-11-24T12:48:37.204Z,7.29
2022-11-24T12:51:17.131Z,7.28
2022-11-24T12:53:49.596Z,7.26
2022-11-24T12:56:35.520Z,7.24
2022-11-24T12:59:20.405Z,7.22
2022-11-24T13:02:18.298Z,7.23
2022-11-24T13:05:24.990Z,7.18
2022-11-24T13:08:05.304Z,7.22
2022-11-24T13:14:31.256Z,7.26
2022-11-24T13:19:49.999Z,7.26
2022-11-24T13:22:26.442Z,7.30
2022-11-24T13:25:32.853Z,7.33
2022-11-24T13:28:03.733Z,7.36
2022-11-24T13:30:34.941Z,7.36
2022-11-24T13:33:16.821Z,7.31
2022-11-24T13:36:02.261Z,7.33
2022-11-24T13:38:49.315Z,7.31
2022-11-24T13:41:37.195Z,7.30
2022-11-24T13:44:16.450Z,7.29
2022-11-24T13:47:07.320Z,7.25
2022-11-24T13:49:52.272Z,7.24
2022-11-24T13:52:47.325Z,7.24
2022-11-24T13:55:13.847Z,7.25
2022-11-24T13:57:52.391Z,7.24
2022-11-24T14:00:35.454Z,7.22
2022-11-24T14:03:29.955Z,7.20
2022-11-24T14:06:03.125Z,7.19
2022-11-24T14:08:37.402Z,7.18
2022-11-24T14:11:14.745Z,7.18
2022-11-24T14:13:41.381Z,7.12
2022-11-24T14:16:23.166Z,7.12
2022-11-24T14:18:52.275Z,7.07
2022-11-24T14:21:27.811Z,7.05
2022-11-24T14:24:11.791Z,7.00
2022-11-24T14:26:41.470Z,6.97
2022-11-24T14:29:22.344Z,6.96
2022-11-24T14:31:59.427Z,6.95
2022-11-24T14:34:35.771Z,6.93
2022-11-24T14:37:02.748Z,6.91
2022-11-24T14:39:30.246Z,6.90
2022-11-24T14:42:27.393Z,6.90
2022-11-24T14:45:03.678Z,6.87
2022-11-24T14:47:45.308Z,6.83
2022-11-24T14:50:23.316Z,6.80
2022-11-24T14:52:57.880Z,6.75
2022-11-24T14:55:37.777Z,6.72
2022-11-24T14:58:30.894Z,6.69
2022-11-24T15:01:36.428Z,6.67
2022-11-24T15:07:29.457Z,6.66
2022-11-24T15:10:01.320Z,6.65
2022-11-24T15:12:48.257Z,6.62
2022-11-24T15:15:16.921Z,6.63
2022-11-24T15:17:53.510Z,6.62
2022-11-24T15:20:48.667Z,6.57
2022-11-24T15:23:29.660Z,6.60
2022-11-24T15:26:34.213Z,6.58
2022-11-24T15:29:05.026Z,6.55
2022-11-24T15:31:32.408Z,6.54
2022-11-24T15:33:59.074Z,6.53
2022-11-24T15:36:25.772Z,6.52
2022-11-24T15:38:52.511Z,6.51
2022-11-24T15:41:32.137Z,6.49
2022-11-24T15:43:59.181Z,6.47
2022-11-24T15:46:29.280Z,6.46
2022-11-24T15:48:57.227Z,6.43
2022-11-24T16:32:06.835Z,6.49
2022-11-24T16:48:01.642Z,5.64
2022-11-24T16:55:59.170Z,5.12
2022-11-24T17:20:00.552Z,4.13
2022-11-24T17:27:52.411Z,4.16
2022-11-24T17:30:19.615Z,4.22
2022-11-24T17:32:46.308Z,4.27
2022-11-24T17:35:13.140Z,4.34
2022-11-24T17:45:43.604Z,4.83
2022-11-24T17:51:16.599Z,5.17
2022-11-24T17:53:48.450Z,5.26
2022-11-24T17:56:24.999Z,5.35
2022-11-24T17:58:59.287Z,5.43
2022-11-24T18:09:33.707Z,5.54
2022-11-24T18:12:00.435Z,5.56
2022-11-24T18:14:27.140Z,5.62
2022-11-24T18:16:54.345Z,5.66
2022-11-24T18:27:30.923Z,5.57
2022-11-24T18:32:41.330Z,5.39
2022-11-24T18:43:13.783Z,5.51
2022-11-24T18:51:17.355Z,5.64
2022-11-24T18:53:46.607Z,5.66
2022-11-24T19:09:51.147Z,5.67
2022-11-24T19:31:18.398Z,5.69
2022-11-24T19:33:48.513Z,5.66
2022-11-24T19:36:20.056Z,5.66
2022-11-24T19:38:54.045Z,5.62
2022-11-24T19:41:25.110Z,5.55
2022-11-24T19:43:55.099Z,5.45
2022-11-24T19:46:29.294Z,5.28
2022-11-24T19:49:00.909Z,5.09
2022-11-24T20:10:26.147Z,4.07
2022-11-24T20:23:46.640Z,3.30
2022-11-24T20:50:53.500Z,2.67
2022-11-24T20:53:28.855Z,2.61
2022-11-24T21:12:34.882Z,2.76
2022-11-24T21:15:07.725Z,2.70
2022-11-24T21:17:37.097Z,2.73
2022-11-24T21:20:04.400Z,2.87
2022-11-24T21:22:30.983Z,3.06
2022-11-24T21:24:57.874Z,3.30
2022-11-24T21:27:27.098Z,3.47
2022-11-24T21:29:53.754Z,3.49
2022-11-24T21:32:21.647Z,3.45
2022-11-24T21:34:48.278Z,3.40
2022-11-24T21:37:14.961Z,3.30
2022-11-24T21:39:48.066Z,3.33
2022-11-24T21:42:14.774Z,3.33
2022-11-24T21:44:43.774Z,3.34
2022-11-24T21:47:12.535Z,3.30
2022-11-24T21:49:39.141Z,3.20
2022-11-24T21:52:05.836Z,3.29
2022-11-24T21:54:32.748Z,3.38
2022-11-24T21:56:59.763Z,3.30
2022-11-24T21:59:32.343Z,3.33
2022-11-24T22:01:59.122Z,3.31
2022-11-24T22:04:25.922Z,3.35
2022-11-24T22:06:53.637Z,3.30
2022-11-24T22:09:20.356Z,3.32
2022-11-24T22:11:52.042Z,3.37
2022-11-24T22:14:18.861Z,3.39
2022-11-24T22:16:45.957Z,3.37
2022-11-24T22:19:12.713Z,3.34
2022-11-24T22:21:39.499Z,3.28
2022-11-24T22:24:07.010Z,3.21
2022-11-24T22:26:33.737Z,3.11
2022-11-24T22:29:02.896Z,3.03
2022-11-24T22:31:32.722Z,2.96
2022-11-24T22:34:01.111Z,2.91
2022-11-24T22:36:30.377Z,2.85
2022-11-24T22:39:05.554Z,2.79
2022-11-24T22:41:37.859Z,2.74
2022-11-24T22:44:05.524Z,2.68
2022-11-24T22:46:32.766Z,2.67
2022-11-24T22:49:01.431Z,2.61
2022-11-24T22:51:34.896Z,2.61
2022-11-24T22:54:04.994Z,2.59
2022-11-24T22:56:36.865Z,2.58
2022-11-24T22:59:04.570Z,2.58
2022-11-24T23:01:33.841Z,2.60
2022-11-24T23:04:00.866Z,2.57
2022-11-24T23:06:31.936Z,2.60
2022-11-24T23:09:12.015Z,2.61
2022-11-24T23:11:41.629Z,2.63
2022-11-24T23:14:15.948Z,2.62
2022-11-24T23:16:43.711Z,2.63
2022-11-24T23:19:13.907Z,2.62
2022-11-24T23:21:40.571Z,2.63
2022-11-24T23:24:08.827Z,2.63
2022-11-24T23:26:40.909Z,2.66
2022-11-24T23:29:13.700Z,2.64
2022-11-24T23:31:40.489Z,2.63
2022-11-24T23:34:07.780Z,2.62
2022-11-24T23:36:36.899Z,2.64
2022-11-24T23:39:12.541Z,2.64
2022-11-24T23:41:39.860Z,2.68
2022-11-24T23:44:11.490Z,2.67
2022-11-24T23:46:38.205Z,2.67
2022-11-24T23:49:04.875Z,2.70
2022-11-24T23:51:33.625Z,2.71
2022-11-24T23:54:01.361Z,2.70
2022-11-24T23:56:33.282Z,2.69
2022-11-24T23:59:03.035Z,2.67
